Time;durP1;ratioP1;P1;durP2;ratioP2;P2;SDS_P1;SDS_P2;PMS_P1;PMS_P2;Temp;Humidity;BMP_temperature;BMP_pressure;BME280_temperature;BME280_humidity;BME280_pressure;Samples;Min_cycle;Max_cycle;Signal;HPM_P1;HPM_P2
2024/03/13 00:00:49;;;;;;;;;;;6.40;99.90;;;;;;5038053;28;19912;-54
2024/03/13 00:03:15;;;;;;;;;;;6.40;99.90;;;;;;5033138;28;19910;-54
2024/03/13 00:05:40;;;;;;;;;;;6.30;99.90;;;;;;5031485;28;19936;-54
2024/03/13 00:08:07;;;;;;;;;;;6.40;99.90;;;;;;5030741;28;20289;-55
2024/03/13 00:10:33;;;;;;;;;;;6.40;99.90;;;;;;5031503;28;20003;-55
2024/03/13 00:12:59;;;;;;;;;;;6.40;99.90;;;;;;5031467;28;20333;-53
2024/03/13 00:15:24;;;;;;;;;;;6.40;99.90;;;;;;5031054;28;19913;-53
2024/03/13 00:17:50;;;;;;;;;;;6.50;99.90;;;;;;5030847;28;19920;-56
2024/03/13 00:20:16;;;;;;;;;;;6.50;99.90;;;;;;5031171;28;20477;-55
2024/03/13 00:22:42;;;;;;;;;;;6.50;99.90;;;;;;5036865;28;19912;-57
2024/03/13 00:25:14;;;;;;;;;;;6.40;99.90;;;;;;5040751;28;20403;-53
2024/03/13 00:27:41;;;;;;;;;;;6.40;99.90;;;;;;5030418;28;19909;-57
2024/03/13 00:30:08;;;;;;;;;;;6.30;99.90;;;;;;5039095;28;19966;-53
2024/03/13 00:32:34;;;;;;;;;;;6.40;99.90;;;;;;5043386;28;19912;-56
2024/03/13 00:35:01;;;;;;;;;;;6.40;99.90;;;;;;5034686;28;20385;-55
2024/03/13 00:37:26;;;;;;;;;;;6.40;99.90;;;;;;5030750;28;19935;-56
2024/03/13 00:39:52;;;;;;;;;;;6.40;99.90;;;;;;5037295;28;20396;-54
2024/03/13 00:42:17;;;;;;;;;;;6.40;99.90;;;;;;5031384;28;20016;-53
2024/03/13 00:44:43;;;;;;;;;;;6.40;99.90;;;;;;5036054;28;19917;-53
2024/03/13 00:47:09;;;;;;;;;;;6.40;99.90;;;;;;5049390;28;19909;-54
2024/03/13 00:49:35;;;;;;;;;;;6.40;99.90;;;;;;5030236;28;19956;-54
2024/03/13 00:52:00;;;;;;;;;;;6.50;99.90;;;;;;5030636;28;19909;-58
2024/03/13 00:54:30;;;;;;;;;;;6.40;99.90;;;;;;5033636;28;20391;-54
2024/03/13 00:56:57;;;;;;;;;;;6.40;99.90;;;;;;5043073;28;20312;-55
2024/03/13 00:59:23;;;;;;;;;;;6.30;99.90;;;;;;5038581;28;19956;-57
2024/03/13 01:01:49;;;;;;;;;;;6.40;99.90;;;;;;5038529;28;20371;-56
2024/03/13 01:04:16;;;;;;;;;;;6.40;99.90;;;;;;5038526;28;19966;-53
2024/03/13 01:06:42;;;;;;;;;;;6.50;99.90;;;;;;5030453;28;19909;-53
2024/03/13 01:09:09;;;;;;;;;;;6.50;99.90;;;;;;5038687;28;19911;-53
2024/03/13 01:11:35;;;;;;;;;;;6.50;99.90;;;;;;5045887;28;19951;-54
2024/03/13 01:14:03;;;;;;;;;;;6.60;99.90;;;;;;5030598;28;19948;-55
2024/03/13 01:16:29;;;;;;;;;;;6.60;99.90;;;;;;5041837;28;20000;-54
2024/03/13 01:18:54;;;;;;;;;;;6.60;99.90;;;;;;5041716;28;19992;-53
2024/03/13 01:21:23;;;;;;;;;;;6.60;99.90;;;;;;5040069;28;19958;-53
2024/03/13 01:23:48;;;;;;;;;;;6.60;99.90;;;;;;5038776;28;19971;-54
2024/03/13 01:26:14;;;;;;;;;;;6.60;99.90;;;;;;5030153;28;20282;-55
2024/03/13 01:28:42;;;;;;;;;;;6.60;99.90;;;;;;5034947;28;19921;-53
2024/03/13 01:31:08;;;;;;;;;;;6.60;99.90;;;;;;5032836;28;19905;-55
2024/03/13 01:33:34;;;;;;;;;;;6.60;99.90;;;;;;5038502;28;19920;-58
2024/03/13 01:35:59;;;;;;;;;;;6.60;99.90;;;;;;5030775;28;19913;-55
2024/03/13 01:38:25;;;;;;;;;;;6.70;99.90;;;;;;5037545;28;19909;-56
2024/03/13 01:55:06;;;;;;;;;;;6.80;99.90;;;;;;5035890;28;20295;-56
2024/03/13 01:57:32;;;;;;;;;;;6.80;99.90;;;;;;5045874;28;20239;-58
2024/03/13 02:02:47;;;;;;;;;;;6.80;99.90;;;;;;5048985;28;19931;-57
2024/03/13 02:05:15;;;;;;;;;;;6.80;99.90;;;;;;5044072;28;20384;-55
2024/03/13 02:07:40;;;;;;;;;;;6.90;99.90;;;;;;5041641;28;19919;-59
2024/03/13 02:10:06;;;;;;;;;;;6.90;99.90;;;;;;5033735;28;20284;-57
2024/03/13 02:12:32;;;;;;;;;;;6.90;99.90;;;;;;5034169;28;19913;-59
2024/03/13 02:14:57;;;;;;;;;;;6.90;99.90;;;;;;5041592;28;19908;-52
2024/03/13 02:17:23;;;;;;;;;;;6.90;99.90;;;;;;5044987;28;19924;-56
2024/03/13 02:19:50;;;;;;;;;;;6.90;99.90;;;;;;5047026;28;19956;-58
2024/03/13 02:22:16;;;;;;;;;;;6.80;99.90;;;;;;5043647;28;19999;-58
2024/03/13 02:24:41;;;;;;;;;;;6.80;99.90;;;;;;5044879;28;20361;-58
2024/03/13 02:27:10;;;;;;;;;;;6.90;99.90;;;;;;5044678;28;19963;-54
2024/03/13 02:29:36;;;;;;;;;;;6.90;99.90;;;;;;5041448;28;19909;-59
2024/03/13 02:32:01;;;;;;;;;;;6.90;99.90;;;;;;5049598;28;19974;-53
2024/03/13 02:34:28;;;;;;;;;;;6.80;99.90;;;;;;5036549;28;20293;-54
2024/03/13 02:36:54;;;;;;;;;;;6.90;99.90;;;;;;5038058;28;19920;-56
2024/03/13 02:39:20;;;;;;;;;;;6.90;99.90;;;;;;5032650;28;19967;-59
2024/03/13 02:41:46;;;;;;;;;;;6.90;99.90;;;;;;5041483;28;19916;-56
2024/03/13 02:44:11;;;;;;;;;;;6.90;99.90;;;;;;5041220;28;19919;-56
2024/03/13 02:46:37;;;;;;;;;;;6.90;99.90;;;;;;5037509;28;19944;-58
2024/03/13 02:49:02;;;;;;;;;;;6.90;99.90;;;;;;5036147;28;19920;-56
2024/03/13 02:51:28;;;;;;;;;;;6.90;99.90;;;;;;5036400;28;19970;-57
2024/03/13 02:53:53;;;;;;;;;;;6.90;99.90;;;;;;5046237;28;20282;-57
2024/03/13 02:56:19;;;;;;;;;;;6.80;99.90;;;;;;5032685;28;19905;-54
2024/03/13 02:58:46;;;;;;;;;;;6.80;99.90;;;;;;5038059;28;20007;-59
2024/03/13 03:01:12;;;;;;;;;;;6.80;99.90;;;;;;5043284;28;19991;-55
2024/03/13 03:03:39;;;;;;;;;;;6.80;99.90;;;;;;5045750;28;20560;-58
2024/03/13 03:06:08;;;;;;;;;;;6.80;99.90;;;;;;5035611;28;19909;-58
2024/03/13 03:08:37;;;;;;;;;;;6.80;99.90;;;;;;5032175;28;19909;-56
2024/03/13 03:11:05;;;;;;;;;;;6.70;99.90;;;;;;5040908;28;20427;-55
2024/03/13 03:13:31;;;;;;;;;;;6.70;99.90;;;;;;5036463;28;19995;-58
2024/03/13 03:15:56;;;;;;;;;;;6.80;99.90;;;;;;5052345;28;19984;-56
2024/03/13 03:18:22;;;;;;;;;;;6.80;99.90;;;;;;5040948;28;19919;-57
2024/03/13 03:20:47;;;;;;;;;;;6.70;99.90;;;;;;5032656;28;19959;-56
2024/03/13 03:23:13;;;;;;;;;;;6.80;99.90;;;;;;5033756;28;19913;-53
2024/03/13 03:25:39;;;;;;;;;;;6.70;99.90;;;;;;5052198;28;19916;-54
2024/03/13 03:28:05;;;;;;;;;;;6.70;99.90;;;;;;5051507;28;19909;-54
2024/03/13 03:30:30;;;;;;;;;;;6.80;99.90;;;;;;5051954;28;19909;-54
2024/03/13 03:32:56;;;;;;;;;;;6.80;99.90;;;;;;5043837;28;19920;-55
2024/03/13 03:35:23;;;;;;;;;;;6.80;99.90;;;;;;5043451;28;19979;-56
2024/03/13 03:37:48;;;;;;;;;;;6.70;99.90;;;;;;5043341;28;19947;-55
2024/03/13 03:40:14;;;;;;;;;;;6.60;99.90;;;;;;5035433;28;19909;-53
2024/03/13 03:42:41;;;;;;;;;;;6.70;99.90;;;;;;5038463;28;19913;-54
2024/03/13 03:45:08;;;;;;;;;;;6.70;99.90;;;;;;5040207;28;20003;-53
2024/03/13 03:47:34;;;;;;;;;;;6.60;99.90;;;;;;5047408;28;19963;-54
2024/03/13 03:50:00;;;;;;;;;;;6.60;99.90;;;;;;5031291;28;19913;-54
2024/03/13 03:52:25;;;;;;;;;;;6.70;99.90;;;;;;5042856;28;19917;-55
2024/03/13 03:54:51;;;;;;;;;;;6.80;99.90;;;;;;5036964;28;19913;-53
2024/03/13 03:57:16;;;;;;;;;;;6.80;99.90;;;;;;5031530;28;20436;-56
2024/03/13 03:59:41;;;;;;;;;;;6.80;99.90;;;;;;5031172;28;20445;-58
2024/03/13 04:02:07;;;;;;;;;;;6.80;99.90;;;;;;5031404;28;19909;-55
2024/03/13 04:04:32;;;;;;;;;;;6.80;99.90;;;;;;5031432;28;19917;-58
2024/03/13 04:06:58;;;;;;;;;;;6.80;99.90;;;;;;5031394;28;19909;-55
2024/03/13 04:09:24;;;;;;;;;;;6.70;99.90;;;;;;5030811;28;19958;-53
2024/03/13 04:11:52;;;;;;;;;;;6.80;99.90;;;;;;5031384;28;19912;-58
2024/03/13 04:14:18;;;;;;;;;;;6.80;99.90;;;;;;5031273;28;19947;-54
2024/03/13 04:16:44;;;;;;;;;;;6.80;99.90;;;;;;5030655;28;20003;-55
2024/03/13 04:19:10;;;;;;;;;;;6.90;99.90;;;;;;5031010;28;19909;-59
2024/03/13 04:21:37;;;;;;;;;;;6.90;99.90;;;;;;5038457;28;19919;-60
2024/03/13 04:24:03;;;;;;;;;;;6.90;99.90;;;;;;5031222;28;19913;-57
2024/03/13 04:26:29;;;;;;;;;;;6.80;99.90;;;;;;5034191;28;20402;-58
2024/03/13 04:28:57;;;;;;;;;;;6.90;99.90;;;;;;5050070;28;20379;-58
2024/03/13 04:31:23;;;;;;;;;;;6.90;99.90;;;;;;5039827;28;20390;-54
2024/03/13 04:33:49;;;;;;;;;;;6.80;99.90;;;;;;5037177;28;19913;-59
2024/03/13 04:36:14;;;;;;;;;;;6.80;99.90;;;;;;5032851;28;19909;-55
2024/03/13 04:38:40;;;;;;;;;;;6.80;99.90;;;;;;5030383;28;19955;-55
2024/03/13 04:41:08;;;;;;;;;;;6.90;99.90;;;;;;5030770;28;20664;-57
2024/03/13 04:43:34;;;;;;;;;;;6.80;99.90;;;;;;5030774;28;20337;-56
2024/03/13 04:45:59;;;;;;;;;;;6.90;99.90;;;;;;5030620;28;19909;-54
2024/03/13 04:48:25;;;;;;;;;;;6.90;99.90;;;;;;5030070;28;20004;-56
2024/03/13 04:50:51;;;;;;;;;;;6.90;99.90;;;;;;5030674;28;19905;-56
2024/03/13 04:53:22;;;;;;;;;;;6.90;99.90;;;;;;5038675;28;19917;-54
2024/03/13 04:55:48;;;;;;;;;;;6.90;99.90;;;;;;5044766;28;19909;-55
2024/03/13 04:58:14;;;;;;;;;;;7.00;99.90;;;;;;5032046;28;19959;-57
2024/03/13 05:00:39;;;;;;;;;;;6.90;99.90;;;;;;5030323;28;19920;-59
2024/03/13 05:03:06;;;;;;;;;;;6.90;99.90;;;;;;5038744;28;19950;-58
2024/03/13 05:05:34;;;;;;;;;;;6.90;99.90;;;;;;5030132;28;20400;-58
2024/03/13 05:07:59;;;;;;;;;;;6.90;99.90;;;;;;5029824;28;19955;-56
2024/03/13 05:10:29;;;;;;;;;;;6.90;99.90;;;;;;5038382;28;19917;-57
2024/03/13 05:12:54;;;;;;;;;;;7.00;99.90;;;;;;5030431;28;19913;-53
2024/03/13 05:15:20;;;;;;;;;;;7.00;99.90;;;;;;5038119;28;19913;-57
2024/03/13 05:17:49;;;;;;;;;;;7.00;99.90;;;;;;5029732;28;20360;-57
2024/03/13 05:20:17;;;;;;;;;;;7.00;99.90;;;;;;5046867;28;19905;-53
2024/03/13 05:22:44;;;;;;;;;;;7.10;99.90;;;;;;5030244;28;19938;-54
2024/03/13 05:25:14;;;;;;;;;;;7.10;99.90;;;;;;5038069;28;19924;-58
2024/03/13 05:27:39;;;;;;;;;;;7.00;99.90;;;;;;5029833;28;20307;-53
2024/03/13 05:30:06;;;;;;;;;;;7.00;99.90;;;;;;5038124;28;19913;-55
2024/03/13 05:32:32;;;;;;;;;;;7.00;99.90;;;;;;5030161;28;19920;-57
2024/03/13 05:34:57;;;;;;;;;;;7.10;99.90;;;;;;5030026;28;20007;-58
2024/03/13 05:37:23;;;;;;;;;;;7.10;99.90;;;;;;5040259;28;20395;-53
2024/03/13 05:39:51;;;;;;;;;;;7.10;99.90;;;;;;5044031;28;19909;-54
2024/03/13 05:42:17;;;;;;;;;;;7.00;99.90;;;;;;5031018;28;19948;-52
2024/03/13 05:44:43;;;;;;;;;;;7.00;99.90;;;;;;5044309;28;19917;-52
2024/03/13 05:47:09;;;;;;;;;;;7.10;99.90;;;;;;5030089;28;20004;-52
2024/03/13 05:49:34;;;;;;;;;;;7.10;99.90;;;;;;5041092;28;19908;-54
2024/03/13 05:52:00;;;;;;;;;;;7.10;99.90;;;;;;5033976;28;20003;-54
2024/03/13 05:54:28;;;;;;;;;;;7.10;99.90;;;;;;5037822;28;19917;-54
2024/03/13 05:56:54;;;;;;;;;;;7.10;99.90;;;;;;5036054;28;19919;-55
2024/03/13 05:59:19;;;;;;;;;;;7.10;99.90;;;;;;5039049;28;19919;-53
2024/03/13 06:01:45;;;;;;;;;;;7.10;99.90;;;;;;5029853;28;19909;-57
2024/03/13 06:04:10;;;;;;;;;;;7.10;99.90;;;;;;5029735;28;19909;-56
2024/03/13 06:06:37;;;;;;;;;;;7.10;99.90;;;;;;5029216;28;19936;-57
2024/03/13 06:09:06;;;;;;;;;;;7.10;99.90;;;;;;5028528;28;19913;-53
2024/03/13 06:11:33;;;;;;;;;;;7.10;99.90;;;;;;5029168;28;20004;-55
2024/03/13 06:13:59;;;;;;;;;;;7.20;99.90;;;;;;5029154;28;19913;-53
2024/03/13 06:16:25;;;;;;;;;;;7.20;99.90;;;;;;5028581;28;19920;-57
2024/03/13 06:18:50;;;;;;;;;;;7.10;99.90;;;;;;5042884;28;19959;-56
2024/03/13 06:21:16;;;;;;;;;;;7.20;99.90;;;;;;5039233;28;19913;-58
2024/03/13 06:23:47;;;;;;;;;;;7.20;99.90;;;;;;5034176;28;20392;-58
2024/03/13 06:26:16;;;;;;;;;;;7.20;99.90;;;;;;5039410;28;19978;-57
2024/03/13 06:31:27;;;;;;;;;;;7.30;99.90;;;;;;5031844;28;19919;-57
2024/03/13 06:33:53;;;;;;;;;;;7.30;99.90;;;;;;5034151;28;19913;-58
2024/03/13 06:36:19;;;;;;;;;;;7.30;99.90;;;;;;5030284;28;19924;-57
2024/03/13 06:38:46;;;;;;;;;;;7.30;99.90;;;;;;5034628;28;20309;-58
2024/03/13 06:41:12;;;;;;;;;;;7.40;99.90;;;;;;5038922;28;19909;-55
2024/03/13 06:43:38;;;;;;;;;;;7.40;99.90;;;;;;5049520;28;19920;-55
2024/03/13 06:46:05;;;;;;;;;;;7.50;99.90;;;;;;5035978;28;20316;-56
2024/03/13 06:48:31;;;;;;;;;;;7.40;99.90;;;;;;5043388;28;19943;-54
2024/03/13 06:50:56;;;;;;;;;;;7.40;99.90;;;;;;5045497;28;20447;-56
2024/03/13 06:53:22;;;;;;;;;;;7.50;99.90;;;;;;5050856;28;19912;-56
2024/03/13 06:55:47;;;;;;;;;;;7.60;99.90;;;;;;5038322;28;19909;-57
2024/03/13 06:58:13;;;;;;;;;;;7.60;99.90;;;;;;5039694;28;19912;-57
2024/03/13 07:00:38;;;;;;;;;;;7.60;99.90;;;;;;5032217;28;20003;-58
2024/03/13 07:03:04;;;;;;;;;;;7.70;99.90;;;;;;5032130;28;20305;-57
2024/03/13 07:05:29;;;;;;;;;;;7.70;99.90;;;;;;5034513;28;19917;-57
2024/03/13 07:07:55;;;;;;;;;;;7.60;99.90;;;;;;5039245;28;19916;-57
2024/03/13 07:10:21;;;;;;;;;;;7.70;99.90;;;;;;5035361;28;19909;-58
2024/03/13 07:12:47;;;;;;;;;;;7.70;99.90;;;;;;5031826;28;19959;-57
2024/03/13 07:15:13;;;;;;;;;;;7.70;99.90;;;;;;5039882;28;19909;-57
2024/03/13 07:17:38;;;;;;;;;;;7.70;99.90;;;;;;5033768;28;19917;-57
2024/03/13 07:20:04;;;;;;;;;;;7.70;99.90;;;;;;5031292;28;19971;-58
2024/03/13 07:22:29;;;;;;;;;;;7.60;99.90;;;;;;5034676;28;19909;-60
2024/03/13 07:24:55;;;;;;;;;;;7.60;99.90;;;;;;5025430;28;19966;-57
2024/03/13 07:27:20;;;;;;;;;;;7.60;99.90;;;;;;5041119;28;19962;-54
2024/03/13 07:29:46;;;;;;;;;;;7.60;99.90;;;;;;5039479;28;20380;-57
2024/03/13 07:32:14;;;;;;;;;;;7.60;99.90;;;;;;5039581;28;19958;-55
2024/03/13 07:34:41;;;;;;;;;;;7.80;99.90;;;;;;5031533;28;19955;-59
2024/03/13 07:37:07;;;;;;;;;;;7.70;99.90;;;;;;5031324;28;19941;-55
2024/03/13 07:39:34;;;;;;;;;;;7.80;99.90;;;;;;5042683;28;19917;-58
2024/03/13 07:41:59;;;;;;;;;;;7.90;99.90;;;;;;5036108;28;19909;-53
2024/03/13 07:44:25;;;;;;;;;;;8.00;99.90;;;;;;5021189;28;20061;-54
2024/03/13 07:46:51;;;;;;;;;;;8.00;99.90;;;;;;5031067;28;20010;-55
2024/03/13 07:49:17;;;;;;;;;;;8.10;99.90;;;;;;5031968;28;20381;-55
2024/03/13 07:51:45;;;;;;;;;;;8.10;99.90;;;;;;5042335;28;19909;-56
2024/03/13 07:54:10;;;;;;;;;;;8.20;99.90;;;;;;5033775;28;19913;-55
2024/03/13 07:56:37;;;;;;;;;;;8.30;99.90;;;;;;5034794;28;19920;-59
2024/03/13 07:59:06;;;;;;;;;;;8.30;99.90;;;;;;5034621;28;20296;-53
2024/03/13 08:01:38;;;;;;;;;;;8.30;99.90;;;;;;5042287;28;19909;-55
2024/03/13 08:04:04;;;;;;;;;;;8.30;99.90;;;;;;5050930;28;20602;-55
2024/03/13 08:06:29;;;;;;;;;;;8.30;99.90;;;;;;5039157;28;20008;-54
2024/03/13 08:08:55;;;;;;;;;;;8.40;99.90;;;;;;5030269;28;19913;-55
2024/03/13 08:11:20;;;;;;;;;;;8.40;99.90;;;;;;5049215;28;20003;-57
2024/03/13 08:13:46;;;;;;;;;;;8.40;99.90;;;;;;5037555;28;19955;-56
2024/03/13 08:16:11;;;;;;;;;;;8.50;99.90;;;;;;5046673;28;20376;-55
2024/03/13 08:18:38;;;;;;;;;;;8.60;99.90;;;;;;5038491;28;19951;-52
2024/03/13 08:21:03;;;;;;;;;;;8.70;99.90;;;;;;5039064;28;19909;-52
2024/03/13 08:23:29;;;;;;;;;;;8.70;99.90;;;;;;5033298;28;19931;-55
2024/03/13 08:25:54;;;;;;;;;;;8.80;99.90;;;;;;5042137;28;19960;-57
2024/03/13 08:28:20;;;;;;;;;;;8.80;99.90;;;;;;5031530;28;19909;-56
2024/03/13 08:30:46;;;;;;;;;;;8.90;99.90;;;;;;5043776;28;19999;-53
2024/03/13 08:33:15;;;;;;;;;;;9.00;99.90;;;;;;5041329;28;20031;-52
2024/03/13 08:35:41;;;;;;;;;;;9.10;99.90;;;;;;5034988;28;20288;-53
2024/03/13 08:38:07;;;;;;;;;;;9.20;99.90;;;;;;5033614;28;20000;-59
2024/03/13 08:40:33;;;;;;;;;;;9.20;99.90;;;;;;5030063;28;20381;-54
2024/03/13 08:42:58;;;;;;;;;;;9.30;99.90;;;;;;5038324;28;20235;-55
2024/03/13 08:45:25;;;;;;;;;;;9.20;99.90;;;;;;5037811;28;20018;-55
2024/03/13 08:47:52;;;;;;;;;;;9.30;99.90;;;;;;5037862;28;19959;-56
2024/03/13 08:50:18;;;;;;;;;;;9.20;99.90;;;;;;5045397;28;19921;-57
2024/03/13 08:52:43;;;;;;;;;;;9.20;99.90;;;;;;5050810;28;20386;-56
2024/03/13 08:55:09;;;;;;;;;;;9.00;99.90;;;;;;5054793;28;19917;-58
2024/03/13 08:57:35;;;;;;;;;;;9.10;99.90;;;;;;5052633;28;19919;-59
2024/03/13 09:00:01;;;;;;;;;;;9.10;99.90;;;;;;5052909;28;19912;-56
2024/03/13 09:02:27;;;;;;;;;;;9.00;99.90;;;;;;5048996;28;19971;-56
2024/03/13 09:04:54;;;;;;;;;;;9.00;99.90;;;;;;5033534;28;20007;-53
2024/03/13 09:07:19;;;;;;;;;;;9.00;99.90;;;;;;5030938;28;19966;-58
2024/03/13 09:09:44;;;;;;;;;;;9.30;99.90;;;;;;5049220;28;19913;-54
2024/03/13 09:12:13;;;;;;;;;;;9.20;99.90;;;;;;5041202;28;20288;-56
2024/03/13 09:14:39;;;;;;;;;;;9.30;99.90;;;;;;5029438;28;19920;-57
2024/03/13 09:17:08;;;;;;;;;;;9.30;99.90;;;;;;5037140;28;19908;-53
2024/03/13 09:19:37;;;;;;;;;;;9.30;99.90;;;;;;5048872;28;20050;-57
2024/03/13 09:22:04;;;;;;;;;;;9.40;99.90;;;;;;5039494;28;19913;-56
2024/03/13 09:24:29;;;;;;;;;;;9.50;99.90;;;;;;5030002;28;19919;-58
2024/03/13 09:26:56;;;;;;;;;;;9.50;99.90;;;;;;5037868;28;20315;-53
2024/03/13 09:29:22;;;;;;;;;;;9.40;99.90;;;;;;5028729;28;20414;-59
2024/03/13 09:31:48;;;;;;;;;;;9.70;99.90;;;;;;5029629;28;19927;-56
2024/03/13 09:34:13;;;;;;;;;;;9.70;99.90;;;;;;5029194;28;20268;-53
2024/03/13 09:36:39;;;;;;;;;;;9.80;99.90;;;;;;5033453;28;19916;-57
2024/03/13 09:39:06;;;;;;;;;;;9.90;99.90;;;;;;5039646;28;19974;-53
2024/03/13 09:41:31;;;;;;;;;;;9.80;99.90;;;;;;5049226;28;19909;-52
2024/03/13 09:43:59;;;;;;;;;;;9.70;99.90;;;;;;5049375;28;19938;-54
2024/03/13 09:46:27;;;;;;;;;;;9.60;99.90;;;;;;5038367;28;19919;-52
2024/03/13 09:48:53;;;;;;;;;;;9.90;99.90;;;;;;5043189;28;19918;-54
2024/03/13 09:51:21;;;;;;;;;;;9.90;99.90;;;;;;5047579;28;19919;-56
2024/03/13 09:53:46;;;;;;;;;;;10.00;99.90;;;;;;5034232;28;20349;-54
2024/03/13 09:56:16;;;;;;;;;;;10.10;99.90;;;;;;5032085;28;19999;-56
2024/03/13 09:58:50;;;;;;;;;;;10.00;99.90;;;;;;5036919;28;19916;-55
2024/03/13 10:01:29;;;;;;;;;;;9.90;99.90;;;;;;5030092;28;19913;-57
2024/03/13 10:04:03;;;;;;;;;;;9.90;99.90;;;;;;5055172;28;19946;-57
2024/03/13 10:06:32;;;;;;;;;;;9.80;99.90;;;;;;5038363;28;19909;-55
2024/03/13 10:08:59;;;;;;;;;;;9.60;99.90;;;;;;5035319;28;19992;-53
2024/03/13 10:11:25;;;;;;;;;;;9.80;99.90;;;;;;5030272;28;20308;-52
2024/03/13 10:13:54;;;;;;;;;;;9.90;99.90;;;;;;5034620;28;20011;-56
2024/03/13 10:16:22;;;;;;;;;;;10.00;99.90;;;;;;5042225;28;19913;-55
2024/03/13 10:18:50;;;;;;;;;;;10.00;99.90;;;;;;5049798;28;19959;-55
2024/03/13 10:21:24;;;;;;;;;;;10.10;99.90;;;;;;5042605;28;20296;-54
2024/03/13 10:23:50;;;;;;;;;;;10.20;99.90;;;;;;5031998;28;19951;-52
2024/03/13 10:26:18;;;;;;;;;;;10.30;99.90;;;;;;5049589;28;20004;-56
2024/03/13 10:28:44;;;;;;;;;;;10.10;99.90;;;;;;5047209;28;19913;-55
2024/03/13 10:31:13;;;;;;;;;;;10.10;99.90;;;;;;5032049;28;19935;-59
2024/03/13 10:33:39;;;;;;;;;;;10.10;99.90;;;;;;5032310;28;20373;-55
2024/03/13 10:36:05;;;;;;;;;;;10.10;99.90;;;;;;5040123;28;19916;-55
2024/03/13 10:38:33;;;;;;;;;;;10.30;99.90;;;;;;5040598;28;19913;-59
2024/03/13 10:41:00;;;;;;;;;;;10.30;99.90;;;;;;5041055;28;19913;-57
2024/03/13 10:43:27;;;;;;;;;;;10.30;99.90;;;;;;5040511;28;19920;-54
2024/03/13 10:45:53;;;;;;;;;;;10.20;99.90;;;;;;5040546;28;19982;-56
2024/03/13 10:48:20;;;;;;;;;;;10.30;99.90;;;;;;5031484;28;19920;-59
2024/03/13 10:50:46;;;;;;;;;;;10.20;99.90;;;;;;5032223;28;20381;-55
2024/03/13 10:53:12;;;;;;;;;;;10.20;99.90;;;;;;5032429;28;19913;-56
2024/03/13 10:55:37;;;;;;;;;;;10.30;99.90;;;;;;5035945;28;20354;-58
2024/03/13 10:58:03;;;;;;;;;;;10.50;99.90;;;;;;5035858;28;19913;-57
2024/03/13 11:00:30;;;;;;;;;;;10.60;99.90;;;;;;5051241;28;19967;-56
2024/03/13 11:02:56;;;;;;;;;;;10.70;99.90;;;;;;5041478;28;19971;-59
2024/03/13 11:05:22;;;;;;;;;;;10.70;99.90;;;;;;5041859;28;19913;-58
2024/03/13 11:07:48;;;;;;;;;;;10.70;99.90;;;;;;5051449;28;19974;-56
2024/03/13 11:10:21;;;;;;;;;;;10.80;99.90;;;;;;5043287;28;20367;-55
2024/03/13 11:12:48;;;;;;;;;;;10.70;99.90;;;;;;5038568;28;20442;-56
2024/03/13 11:15:18;;;;;;;;;;;10.70;99.90;;;;;;5031665;28;19905;-55
2024/03/13 11:17:49;;;;;;;;;;;10.80;99.90;;;;;;5030991;28;19909;-58
2024/03/13 11:20:20;;;;;;;;;;;11.00;99.90;;;;;;5039992;28;19913;-55
2024/03/13 11:22:49;;;;;;;;;;;11.30;99.90;;;;;;5031679;28;19913;-57
2024/03/13 11:25:17;;;;;;;;;;;11.40;99.90;;;;;;5039696;28;19955;-56
2024/03/13 11:27:46;;;;;;;;;;;11.60;99.90;;;;;;5038900;28;19913;-57
2024/03/13 11:30:15;;;;;;;;;;;11.70;99.90;;;;;;5031717;28;19909;-58
2024/03/13 11:32:41;;;;;;;;;;;11.90;99.90;;;;;;5039021;28;19909;-56
2024/03/13 11:35:06;;;;;;;;;;;11.90;99.90;;;;;;5039838;28;20000;-56
2024/03/13 11:37:33;;;;;;;;;;;11.90;99.90;;;;;;5031644;28;19913;-56
2024/03/13 11:39:59;;;;;;;;;;;11.80;99.90;;;;;;5045775;28;20323;-57
2024/03/13 11:42:30;;;;;;;;;;;11.90;99.90;;;;;;5049277;28;19990;-56
2024/03/13 11:45:09;;;;;;;;;;;12.00;99.90;;;;;;5041546;28;19921;-60
2024/03/13 11:47:37;;;;;;;;;;;11.90;99.90;;;;;;5030920;28;19905;-57
2024/03/13 11:50:03;;;;;;;;;;;11.80;99.90;;;;;;5038998;28;19913;-56
2024/03/13 11:52:28;;;;;;;;;;;11.80;99.90;;;;;;5041734;28;19909;-56
2024/03/13 11:54:57;;;;;;;;;;;11.80;99.90;;;;;;5042609;28;20052;-58
2024/03/13 11:57:24;;;;;;;;;;;12.00;99.90;;;;;;5041220;28;19909;-60
2024/03/13 11:59:51;;;;;;;;;;;12.10;99.90;;;;;;5029763;28;19905;-56
2024/03/13 12:02:32;;;;;;;;;;;12.10;99.90;;;;;;5047472;28;19916;-58
2024/03/13 12:05:01;;;;;;;;;;;12.30;99.90;;;;;;5030729;28;20058;-58
2024/03/13 12:07:27;;;;;;;;;;;12.30;99.90;;;;;;5038547;28;19916;-60
2024/03/13 12:09:52;;;;;;;;;;;12.30;99.90;;;;;;5030206;28;19913;-60
2024/03/13 12:12:18;;;;;;;;;;;12.10;99.90;;;;;;5038883;28;19913;-56
2024/03/13 12:14:44;;;;;;;;;;;12.10;99.90;;;;;;5030719;28;19913;-59
2024/03/13 12:17:10;;;;;;;;;;;12.20;99.90;;;;;;5046800;28;19919;-60
2024/03/13 12:19:36;;;;;;;;;;;12.10;99.90;;;;;;5046621;28;19959;-58
2024/03/13 12:22:05;;;;;;;;;;;11.90;99.90;;;;;;5012680;28;19909;-60
2024/03/13 12:24:33;;;;;;;;;;;11.70;99.90;;;;;;5023285;28;19998;-59
2024/03/13 12:26:58;;;;;;;;;;;11.60;99.90;;;;;;5041992;28;19911;-56
2024/03/13 12:29:27;;;;;;;;;;;11.60;99.90;;;;;;5033347;28;20000;-56
2024/03/13 12:31:53;;;;;;;;;;;11.50;99.90;;;;;;5036494;28;19913;-58
2024/03/13 12:34:19;;;;;;;;;;;11.60;99.90;;;;;;5038316;28;19913;-56
2024/03/13 12:36:44;;;;;;;;;;;11.70;99.90;;;;;;5030389;28;20267;-52
2024/03/13 12:39:10;;;;;;;;;;;11.60;99.90;;;;;;5029434;28;20298;-55
2024/03/13 12:41:39;;;;;;;;;;;11.60;99.90;;;;;;5033813;28;20378;-56
2024/03/13 12:44:05;;;;;;;;;;;11.60;99.90;;;;;;5034091;28;19963;-60
2024/03/13 12:46:30;;;;;;;;;;;11.70;99.90;;;;;;5032275;28;19916;-53
2024/03/13 12:48:56;;;;;;;;;;;11.80;99.90;;;;;;5049587;28;19909;-55
2024/03/13 12:51:21;;;;;;;;;;;12.00;99.90;;;;;;5031917;28;19920;-55
2024/03/13 12:53:47;;;;;;;;;;;12.00;99.90;;;;;;5030013;28;20369;-54
2024/03/13 12:56:12;;;;;;;;;;;11.90;99.90;;;;;;5028361;28;20439;-53
2024/03/13 12:58:38;;;;;;;;;;;11.80;99.90;;;;;;5037692;28;19905;-55
2024/03/13 13:01:04;;;;;;;;;;;11.80;99.90;;;;;;5037169;28;19913;-56
2024/03/13 13:03:31;;;;;;;;;;;11.90;99.90;;;;;;5046918;28;19909;-58
2024/03/13 13:05:57;;;;;;;;;;;11.90;99.90;;;;;;5035800;28;20338;-60
2024/03/13 13:08:25;;;;;;;;;;;11.90;99.90;;;;;;5030905;28;19913;-52
2024/03/13 13:10:50;;;;;;;;;;;11.90;99.90;;;;;;5043413;28;19912;-57
2024/03/13 13:13:16;;;;;;;;;;;12.10;99.90;;;;;;5041317;28;19973;-57
2024/03/13 13:15:42;;;;;;;;;;;12.10;99.90;;;;;;5049445;28;19919;-60
2024/03/13 13:18:08;;;;;;;;;;;12.00;99.90;;;;;;5032795;28;19913;-60
2024/03/13 13:20:34;;;;;;;;;;;12.10;99.90;;;;;;5040705;28;20372;-65
2024/03/13 13:22:59;;;;;;;;;;;12.10;99.90;;;;;;5034470;28;19949;-57
2024/03/13 13:25:28;;;;;;;;;;;12.10;99.90;;;;;;5037840;28;19917;-56
2024/03/13 13:27:54;;;;;;;;;;;11.90;99.90;;;;;;5039016;28;20293;-57
2024/03/13 13:30:20;;;;;;;;;;;12.00;99.90;;;;;;5038264;28;20012;-61
2024/03/13 13:32:46;;;;;;;;;;;11.80;99.90;;;;;;5032039;28;20066;-57
2024/03/13 13:35:11;;;;;;;;;;;11.90;99.90;;;;;;5038939;28;19904;-56
2024/03/13 13:37:38;;;;;;;;;;;12.10;99.90;;;;;;5027860;28;20124;-59
2024/03/13 13:40:22;;;;;;;;;;;12.10;99.90;;;;;;5035154;28;20381;-58
2024/03/13 13:42:50;;;;;;;;;;;12.10;99.90;;;;;;5040420;28;19905;-56
2024/03/13 13:45:17;;;;;;;;;;;12.10;99.90;;;;;;5040531;28;19921;-55
2024/03/13 13:47:43;;;;;;;;;;;12.20;99.90;;;;;;5036276;28;20456;-56
2024/03/13 13:50:10;;;;;;;;;;;12.10;99.90;;;;;;5039824;28;20079;-56
2024/03/13 13:52:39;;;;;;;;;;;11.90;99.90;;;;;;5049981;28;19955;-57
2024/03/13 13:55:08;;;;;;;;;;;12.00;99.90;;;;;;5048985;28;19909;-55
2024/03/13 13:57:34;;;;;;;;;;;12.10;99.90;;;;;;5051990;28;19915;-56
2024/03/13 13:59:59;;;;;;;;;;;12.10;99.90;;;;;;5046099;28;20288;-58
2024/03/13 14:02:25;;;;;;;;;;;12.10;99.90;;;;;;5041342;28;19913;-55
2024/03/13 14:04:53;;;;;;;;;;;12.30;99.90;;;;;;5033078;28;19923;-58
2024/03/13 14:07:18;;;;;;;;;;;12.30;99.90;;;;;;5056485;28;19914;-61
2024/03/13 14:09:44;;;;;;;;;;;12.30;99.90;;;;;;5052734;28;20299;-53
2024/03/13 14:12:23;;;;;;;;;;;12.20;99.90;;;;;;5037010;28;20520;-57
2024/03/13 14:14:51;;;;;;;;;;;12.30;99.90;;;;;;5039421;28;19909;-56
2024/03/13 14:17:16;;;;;;;;;;;12.40;99.90;;;;;;5032977;28;19955;-53
2024/03/13 14:19:43;;;;;;;;;;;12.50;99.90;;;;;;5040698;28;20370;-53
2024/03/13 14:22:08;;;;;;;;;;;12.60;99.90;;;;;;5031866;28;19909;-55
2024/03/13 14:24:34;;;;;;;;;;;12.70;99.90;;;;;;5035510;28;20284;-57
2024/03/13 14:26:59;;;;;;;;;;;12.70;99.90;;;;;;5052520;28;20304;-59
2024/03/13 14:29:25;;;;;;;;;;;12.70;99.90;;;;;;5043808;28;20019;-58
2024/03/13 14:31:51;;;;;;;;;;;12.70;99.90;;;;;;5052587;28;19916;-57
2024/03/13 14:34:16;;;;;;;;;;;12.70;99.90;;;;;;5044041;28;19913;-56
2024/03/13 14:36:42;;;;;;;;;;;12.70;99.90;;;;;;5048255;28;20007;-57
2024/03/13 14:39:13;;;;;;;;;;;12.60;99.90;;;;;;5040358;28;20357;-58
2024/03/13 14:41:44;;;;;;;;;;;12.60;99.90;;;;;;5032441;28;19944;-58